sensor_id;sensor_type;location;lat;lon;timestamp;P1;durP1;ratioP1;P2;durP2;ratioP2
12407;SDS011;6268;48.188;17.134;2022-08-03T00:00:37;1.95;;;1.85;;
12407;SDS011;6268;48.188;17.134;2022-08-03T00:03:06;2.95;;;2.35;;
12407;SDS011;6268;48.188;17.134;2022-08-03T00:05:35;1.40;;;1.40;;
12407;SDS011;6268;48.188;17.134;2022-08-03T00:08:05;1.33;;;1.33;;
12407;SDS011;6268;48.188;17.134;2022-08-03T00:10:34;2.03;;;1.38;;
12407;SDS011;6268;48.188;17.134;2022-08-03T00:13:05;1.70;;;1.60;;
12407;SDS011;6268;48.188;17.134;2022-08-03T00:15:33;1.50;;;1.40;;
12407;SDS011;6268;48.188;17.134;2022-08-03T00:18:02;1.05;;;1.05;;
12407;SDS011;6268;48.188;17.134;2022-08-03T00:20:31;1.80;;;1.70;;
12407;SDS011;6268;48.188;17.134;2022-08-03T00:23:00;1.23;;;1.20;;
12407;SDS011;6268;48.188;17.134;2022-08-03T00:25:29;2.45;;;1.50;;
12407;SDS011;6268;48.188;17.134;2022-08-03T00:27:58;1.50;;;1.40;;
12407;SDS011;6268;48.188;17.134;2022-08-03T00:30:28;2.53;;;1.58;;
12407;SDS011;6268;48.188;17.134;2022-08-03T00:32:57;2.25;;;1.30;;
12407;SDS011;6268;48.188;17.134;2022-08-03T00:35:27;1.63;;;1.52;;
12407;SDS011;6268;48.188;17.134;2022-08-03T00:38:16;1.52;;;1.45;;
12407;SDS011;6268;48.188;17.134;2022-08-03T00:40:45;5.07;;;2.10;;
12407;SDS011;6268;48.188;17.134;2022-08-03T00:43:14;2.20;;;2.10;;
12407;SDS011;6268;48.188;17.134;2022-08-03T00:45:44;2.00;;;1.90;;
12407;SDS011;6268;48.188;17.134;2022-08-03T00:48:15;2.08;;;1.98;;
12407;SDS011;6268;48.188;17.134;2022-08-03T00:50:59;2.22;;;1.63;;
12407;SDS011;6268;48.188;17.134;2022-08-03T00:53:28;1.75;;;1.67;;
12407;SDS011;6268;48.188;17.134;2022-08-03T00:55:58;1.98;;;1.60;;
12407;SDS011;6268;48.188;17.134;2022-08-03T00:58:26;1.90;;;1.80;;
12407;SDS011;6268;48.188;17.134;2022-08-03T01:00:57;3.13;;;1.80;;
12407;SDS011;6268;48.188;17.134;2022-08-03T01:03:26;1.50;;;1.50;;
12407;SDS011;6268;48.188;17.134;2022-08-03T01:05:57;1.92;;;1.80;;
12407;SDS011;6268;48.188;17.134;2022-08-03T01:08:36;1.83;;;1.73;;
12407;SDS011;6268;48.188;17.134;2022-08-03T01:11:15;1.83;;;1.73;;
12407;SDS011;6268;48.188;17.134;2022-08-03T01:13:53;1.33;;;1.33;;
12407;SDS011;6268;48.188;17.134;2022-08-03T01:16:49;1.80;;;1.70;;
12407;SDS011;6268;48.188;17.134;2022-08-03T01:19:35;1.67;;;1.58;;
12407;SDS011;6268;48.188;17.134;2022-08-03T01:22:22;3.20;;;1.90;;
12407;SDS011;6268;48.188;17.134;2022-08-03T01:25:13;1.95;;;1.85;;
12407;SDS011;6268;48.188;17.134;2022-08-03T01:28:01;2.22;;;2.13;;
12407;SDS011;6268;48.188;17.134;2022-08-03T01:31:05;2.40;;;2.00;;
12407;SDS011;6268;48.188;17.134;2022-08-03T01:33:38;1.60;;;1.60;;
12407;SDS011;6268;48.188;17.134;2022-08-03T01:36:11;2.42;;;2.20;;
12407;SDS011;6268;48.188;17.134;2022-08-03T01:38:45;1.98;;;1.88;;
12407;SDS011;6268;48.188;17.134;2022-08-03T01:41:23;1.77;;;1.67;;
12407;SDS011;6268;48.188;17.134;2022-08-03T01:43:59;1.85;;;1.75;;
12407;SDS011;6268;48.188;17.134;2022-08-03T01:46:51;2.10;;;2.00;;
12407;SDS011;6268;48.188;17.134;2022-08-03T01:49:22;1.83;;;1.73;;
12407;SDS011;6268;48.188;17.134;2022-08-03T01:51:53;2.10;;;2.00;;
12407;SDS011;6268;48.188;17.134;2022-08-03T01:54:30;2.10;;;2.00;;
12407;SDS011;6268;48.188;17.134;2022-08-03T01:57:07;2.08;;;1.98;;
12407;SDS011;6268;48.188;17.134;2022-08-03T01:59:38;2.00;;;1.90;;
12407;SDS011;6268;48.188;17.134;2022-08-03T02:02:11;3.80;;;2.67;;
12407;SDS011;6268;48.188;17.134;2022-08-03T02:05:00;2.03;;;1.92;;
12407;SDS011;6268;48.188;17.134;2022-08-03T02:07:36;1.80;;;1.80;;
12407;SDS011;6268;48.188;17.134;2022-08-03T02:10:09;2.45;;;2.35;;
12407;SDS011;6268;48.188;17.134;2022-08-03T02:12:59;1.88;;;1.77;;
12407;SDS011;6268;48.188;17.134;2022-08-03T02:15:31;1.92;;;1.70;;
12407;SDS011;6268;48.188;17.134;2022-08-03T02:18:05;8.63;;;2.60;;
12407;SDS011;6268;48.188;17.134;2022-08-03T02:20:37;2.13;;;1.90;;
12407;SDS011;6268;48.188;17.134;2022-08-03T02:23:08;1.77;;;1.67;;
12407;SDS011;6268;48.188;17.134;2022-08-03T02:25:38;2.92;;;1.83;;
12407;SDS011;6268;48.188;17.134;2022-08-03T02:28:15;1.90;;;1.80;;
12407;SDS011;6268;48.188;17.134;2022-08-03T02:30:49;2.53;;;2.10;;
12407;SDS011;6268;48.188;17.134;2022-08-03T02:33:25;2.20;;;2.00;;
12407;SDS011;6268;48.188;17.134;2022-08-03T02:35:58;3.25;;;2.30;;
12407;SDS011;6268;48.188;17.134;2022-08-03T02:38:30;1.90;;;1.80;;
12407;SDS011;6268;48.188;17.134;2022-08-03T02:41:04;2.40;;;1.90;;
12407;SDS011;6268;48.188;17.134;2022-08-03T02:43:48;2.30;;;2.20;;
12407;SDS011;6268;48.188;17.134;2022-08-03T02:46:33;3.63;;;2.33;;
12407;SDS011;6268;48.188;17.134;2022-08-03T02:49:07;2.40;;;2.20;;
12407;SDS011;6268;48.188;17.134;2022-08-03T02:52:00;1.83;;;1.73;;
12407;SDS011;6268;48.188;17.134;2022-08-03T02:54:31;2.95;;;1.88;;
12407;SDS011;6268;48.188;17.134;2022-08-03T02:57:02;4.88;;;2.53;;
12407;SDS011;6268;48.188;17.134;2022-08-03T02:59:34;3.53;;;2.08;;
12407;SDS011;6268;48.188;17.134;2022-08-03T03:02:06;2.20;;;2.05;;
12407;SDS011;6268;48.188;17.134;2022-08-03T03:04:39;2.60;;;2.40;;
12407;SDS011;6268;48.188;17.134;2022-08-03T03:07:30;6.03;;;2.63;;
12407;SDS011;6268;48.188;17.134;2022-08-03T03:10:17;5.63;;;2.70;;
12407;SDS011;6268;48.188;17.134;2022-08-03T03:12:49;4.13;;;2.40;;
12407;SDS011;6268;48.188;17.134;2022-08-03T03:15:21;2.70;;;2.53;;
12407;SDS011;6268;48.188;17.134;2022-08-03T03:17:52;2.75;;;2.28;;
12407;SDS011;6268;48.188;17.134;2022-08-03T03:20:24;2.40;;;2.20;;
12407;SDS011;6268;48.188;17.134;2022-08-03T03:22:57;3.03;;;2.17;;
12407;SDS011;6268;48.188;17.134;2022-08-03T03:25:28;3.92;;;2.17;;
12407;SDS011;6268;48.188;17.134;2022-08-03T03:27:59;2.75;;;2.55;;
12407;SDS011;6268;48.188;17.134;2022-08-03T03:30:32;2.63;;;2.22;;
12407;SDS011;6268;48.188;17.134;2022-08-03T03:33:01;4.78;;;2.55;;
12407;SDS011;6268;48.188;17.134;2022-08-03T03:35:32;4.65;;;3.13;;
12407;SDS011;6268;48.188;17.134;2022-08-03T03:38:05;10.25;;;3.22;;
12407;SDS011;6268;48.188;17.134;2022-08-03T03:40:34;5.72;;;3.00;;
12407;SDS011;6268;48.188;17.134;2022-08-03T03:43:06;6.25;;;3.03;;
12407;SDS011;6268;48.188;17.134;2022-08-03T03:45:36;5.43;;;2.97;;
12407;SDS011;6268;48.188;17.134;2022-08-03T03:48:07;7.65;;;3.40;;
12407;SDS011;6268;48.188;17.134;2022-08-03T03:50:38;2.45;;;2.28;;
12407;SDS011;6268;48.188;17.134;2022-08-03T03:53:08;3.95;;;3.10;;
12407;SDS011;6268;48.188;17.134;2022-08-03T03:55:38;7.15;;;4.10;;
12407;SDS011;6268;48.188;17.134;2022-08-03T03:58:28;8.27;;;3.72;;
12407;SDS011;6268;48.188;17.134;2022-08-03T04:00:58;10.48;;;4.32;;
12407;SDS011;6268;48.188;17.134;2022-08-03T04:03:28;6.90;;;4.47;;
12407;SDS011;6268;48.188;17.134;2022-08-03T04:05:58;5.97;;;3.88;;
12407;SDS011;6268;48.188;17.134;2022-08-03T04:08:44;7.30;;;3.22;;
12407;SDS011;6268;48.188;17.134;2022-08-03T04:11:39;6.05;;;3.42;;
12407;SDS011;6268;48.188;17.134;2022-08-03T04:14:16;5.70;;;3.38;;
12407;SDS011;6268;48.188;17.134;2022-08-03T04:16:52;8.02;;;3.33;;
12407;SDS011;6268;48.188;17.134;2022-08-03T04:19:26;7.85;;;3.20;;
12407;SDS011;6268;48.188;17.134;2022-08-03T04:22:01;6.15;;;3.58;;
12407;SDS011;6268;48.188;17.134;2022-08-03T04:24:34;4.80;;;3.40;;
12407;SDS011;6268;48.188;17.134;2022-08-03T04:27:10;3.33;;;3.03;;
12407;SDS011;6268;48.188;17.134;2022-08-03T04:29:45;5.35;;;2.92;;
12407;SDS011;6268;48.188;17.134;2022-08-03T04:32:18;5.35;;;3.05;;
12407;SDS011;6268;48.188;17.134;2022-08-03T04:34:50;2.78;;;2.53;;
12407;SDS011;6268;48.188;17.134;2022-08-03T04:37:23;6.82;;;2.90;;
12407;SDS011;6268;48.188;17.134;2022-08-03T04:40:02;10.70;;;3.63;;
12407;SDS011;6268;48.188;17.134;2022-08-03T04:42:36;7.03;;;3.45;;
12407;SDS011;6268;48.188;17.134;2022-08-03T04:45:07;4.30;;;2.67;;
12407;SDS011;6268;48.188;17.134;2022-08-03T04:47:41;3.75;;;2.30;;
12407;SDS011;6268;48.188;17.134;2022-08-03T04:50:10;5.50;;;2.58;;
12407;SDS011;6268;48.188;17.134;2022-08-03T04:52:48;3.17;;;2.50;;
12407;SDS011;6268;48.188;17.134;2022-08-03T04:55:24;6.05;;;3.40;;
12407;SDS011;6268;48.188;17.134;2022-08-03T04:57:54;6.20;;;2.90;;
12407;SDS011;6268;48.188;17.134;2022-08-03T05:00:23;3.65;;;3.00;;
12407;SDS011;6268;48.188;17.134;2022-08-03T05:02:53;2.97;;;2.70;;
12407;SDS011;6268;48.188;17.134;2022-08-03T05:05:22;3.38;;;3.08;;
12407;SDS011;6268;48.188;17.134;2022-08-03T05:08:13;6.18;;;3.03;;
12407;SDS011;6268;48.188;17.134;2022-08-03T05:10:46;4.07;;;2.97;;
12407;SDS011;6268;48.188;17.134;2022-08-03T05:13:15;3.80;;;3.33;;
12407;SDS011;6268;48.188;17.134;2022-08-03T05:15:43;6.57;;;4.40;;
12407;SDS011;6268;48.188;17.134;2022-08-03T05:18:12;7.75;;;4.90;;
12407;SDS011;6268;48.188;17.134;2022-08-03T05:20:41;5.45;;;3.70;;
12407;SDS011;6268;48.188;17.134;2022-08-03T05:23:10;4.45;;;3.50;;
12407;SDS011;6268;48.188;17.134;2022-08-03T05:25:40;6.15;;;3.10;;
12407;SDS011;6268;48.188;17.134;2022-08-03T05:28:15;3.00;;;2.72;;
12407;SDS011;6268;48.188;17.134;2022-08-03T05:30:44;4.25;;;2.80;;
12407;SDS011;6268;48.188;17.134;2022-08-03T05:33:13;4.15;;;3.58;;
12407;SDS011;6268;48.188;17.134;2022-08-03T05:35:41;2.83;;;2.63;;
12407;SDS011;6268;48.188;17.134;2022-08-03T05:38:29;3.58;;;3.28;;
12407;SDS011;6268;48.188;17.134;2022-08-03T05:41:02;3.05;;;2.85;;
12407;SDS011;6268;48.188;17.134;2022-08-03T05:43:49;3.85;;;3.53;;
12407;SDS011;6268;48.188;17.134;2022-08-03T05:46:19;4.13;;;3.70;;
12407;SDS011;6268;48.188;17.134;2022-08-03T05:48:49;6.00;;;4.22;;
12407;SDS011;6268;48.188;17.134;2022-08-03T05:51:18;4.45;;;3.65;;
12407;SDS011;6268;48.188;17.134;2022-08-03T05:53:47;3.05;;;2.85;;
12407;SDS011;6268;48.188;17.134;2022-08-03T05:56:20;3.45;;;3.25;;
12407;SDS011;6268;48.188;17.134;2022-08-03T05:58:50;4.78;;;3.15;;
12407;SDS011;6268;48.188;17.134;2022-08-03T06:01:19;2.40;;;2.30;;
12407;SDS011;6268;48.188;17.134;2022-08-03T06:03:49;2.60;;;2.40;;
12407;SDS011;6268;48.188;17.134;2022-08-03T06:06:19;2.20;;;2.10;;
12407;SDS011;6268;48.188;17.134;2022-08-03T06:08:48;3.05;;;2.72;;
12407;SDS011;6268;48.188;17.134;2022-08-03T06:11:18;3.45;;;3.08;;
12407;SDS011;6268;48.188;17.134;2022-08-03T06:13:47;2.80;;;2.60;;
12407;SDS011;6268;48.188;17.134;2022-08-03T06:16:15;2.40;;;2.30;;
12407;SDS011;6268;48.188;17.134;2022-08-03T06:18:44;2.40;;;2.25;;
12407;SDS011;6268;48.188;17.134;2022-08-03T06:21:13;3.08;;;2.35;;
12407;SDS011;6268;48.188;17.134;2022-08-03T06:23:43;2.65;;;2.05;;
12407;SDS011;6268;48.188;17.134;2022-08-03T06:26:23;2.13;;;1.98;;
12407;SDS011;6268;48.188;17.134;2022-08-03T06:28:54;3.35;;;2.13;;
12407;SDS011;6268;48.188;17.134;2022-08-03T06:31:24;2.60;;;2.15;;
12407;SDS011;6268;48.188;17.134;2022-08-03T06:33:59;2.25;;;2.15;;
12407;SDS011;6268;48.188;17.134;2022-08-03T06:36:50;2.33;;;2.10;;
12407;SDS011;6268;48.188;17.134;2022-08-03T06:39:27;2.53;;;2.22;;
12407;SDS011;6268;48.188;17.134;2022-08-03T06:41:57;2.20;;;2.10;;
12407;SDS011;6268;48.188;17.134;2022-08-03T06:44:26;2.25;;;2.05;;
12407;SDS011;6268;48.188;17.134;2022-08-03T06:46:55;4.15;;;3.85;;
12407;SDS011;6268;48.188;17.134;2022-08-03T06:49:24;2.83;;;2.40;;
12407;SDS011;6268;48.188;17.134;2022-08-03T06:51:53;2.63;;;2.42;;
12407;SDS011;6268;48.188;17.134;2022-08-03T06:54:35;2.28;;;2.13;;
12407;SDS011;6268;48.188;17.134;2022-08-03T06:57:05;2.55;;;1.90;;
12407;SDS011;6268;48.188;17.134;2022-08-03T06:59:37;2.88;;;2.20;;
12407;SDS011;6268;48.188;17.134;2022-08-03T07:02:25;2.60;;;2.40;;
12407;SDS011;6268;48.188;17.134;2022-08-03T07:04:55;3.05;;;2.13;;
12407;SDS011;6268;48.188;17.134;2022-08-03T07:07:24;3.47;;;2.20;;
12407;SDS011;6268;48.188;17.134;2022-08-03T07:09:53;3.35;;;2.55;;
12407;SDS011;6268;48.188;17.134;2022-08-03T07:12:25;2.33;;;2.17;;
12407;SDS011;6268;48.188;17.134;2022-08-03T07:14:56;2.00;;;1.90;;
12407;SDS011;6268;48.188;17.134;2022-08-03T07:17:28;4.82;;;2.63;;
12407;SDS011;6268;48.188;17.134;2022-08-03T07:20:01;2.83;;;2.65;;
12407;SDS011;6268;48.188;17.134;2022-08-03T07:22:33;2.97;;;2.78;;
12407;SDS011;6268;48.188;17.134;2022-08-03T07:25:02;2.50;;;2.40;;
12407;SDS011;6268;48.188;17.134;2022-08-03T07:27:33;3.08;;;2.72;;
12407;SDS011;6268;48.188;17.134;2022-08-03T07:30:04;4.15;;;2.83;;
12407;SDS011;6268;48.188;17.134;2022-08-03T07:32:35;2.97;;;2.50;;
12407;SDS011;6268;48.188;17.134;2022-08-03T07:35:16;3.78;;;3.47;;
12407;SDS011;6268;48.188;17.134;2022-08-03T07:37:50;3.25;;;3.03;;
12407;SDS011;6268;48.188;17.134;2022-08-03T07:40:20;4.72;;;3.67;;
12407;SDS011;6268;48.188;17.134;2022-08-03T07:42:58;4.32;;;2.90;;
12407;SDS011;6268;48.188;17.134;2022-08-03T07:45:29;3.30;;;3.10;;
12407;SDS011;6268;48.188;17.134;2022-08-03T07:47:58;3.40;;;2.88;;
12407;SDS011;6268;48.188;17.134;2022-08-03T07:50:27;2.90;;;2.70;;
12407;SDS011;6268;48.188;17.134;2022-08-03T07:52:56;2.72;;;2.53;;
12407;SDS011;6268;48.188;17.134;2022-08-03T07:55:25;3.10;;;2.90;;
12407;SDS011;6268;48.188;17.134;2022-08-03T07:58:01;3.13;;;2.70;;
12407;SDS011;6268;48.188;17.134;2022-08-03T08:00:32;2.85;;;2.67;;
12407;SDS011;6268;48.188;17.134;2022-08-03T08:03:01;3.42;;;3.13;;
12407;SDS011;6268;48.188;17.134;2022-08-03T08:05:31;2.88;;;2.78;;
12407;SDS011;6268;48.188;17.134;2022-08-03T08:08:01;2.90;;;2.70;;
12407;SDS011;6268;48.188;17.134;2022-08-03T08:10:31;3.95;;;2.90;;
12407;SDS011;6268;48.188;17.134;2022-08-03T08:13:02;3.25;;;3.03;;
12407;SDS011;6268;48.188;17.134;2022-08-03T08:15:31;3.53;;;2.88;;
12407;SDS011;6268;48.188;17.134;2022-08-03T08:18:00;2.60;;;2.40;;
12407;SDS011;6268;48.188;17.134;2022-08-03T08:20:30;2.83;;;2.60;;
12407;SDS011;6268;48.188;17.134;2022-08-03T08:23:04;5.80;;;3.00;;
12407;SDS011;6268;48.188;17.134;2022-08-03T08:25:54;1.95;;;1.88;;
12407;SDS011;6268;48.188;17.134;2022-08-03T08:28:24;2.72;;;2.55;;
12407;SDS011;6268;48.188;17.134;2022-08-03T08:30:58;3.10;;;2.90;;
12407;SDS011;6268;48.188;17.134;2022-08-03T08:33:28;3.10;;;2.90;;
12407;SDS011;6268;48.188;17.134;2022-08-03T08:36:17;2.50;;;2.40;;
12407;SDS011;6268;48.188;17.134;2022-08-03T08:38:47;2.70;;;2.50;;
12407;SDS011;6268;48.188;17.134;2022-08-03T08:41:16;3.63;;;2.20;;
12407;SDS011;6268;48.188;17.134;2022-08-03T08:43:46;3.47;;;2.97;;
12407;SDS011;6268;48.188;17.134;2022-08-03T08:46:15;22.30;;;7.03;;
12407;SDS011;6268;48.188;17.134;2022-08-03T08:48:49;11.85;;;5.78;;
12407;SDS011;6268;48.188;17.134;2022-08-03T08:51:20;2.67;;;2.58;;
12407;SDS011;6268;48.188;17.134;2022-08-03T08:54:14;6.57;;;4.15;;
12407;SDS011;6268;48.188;17.134;2022-08-03T08:56:48;3.45;;;2.38;;
12407;SDS011;6268;48.188;17.134;2022-08-03T08:59:20;3.22;;;2.85;;
12407;SDS011;6268;48.188;17.134;2022-08-03T09:01:49;2.97;;;2.65;;
12407;SDS011;6268;48.188;17.134;2022-08-03T09:04:23;4.55;;;2.30;;
12407;SDS011;6268;48.188;17.134;2022-08-03T09:06:52;2.50;;;2.30;;
12407;SDS011;6268;48.188;17.134;2022-08-03T09:09:41;2.97;;;2.78;;
12407;SDS011;6268;48.188;17.134;2022-08-03T09:12:29;2.53;;;2.40;;
12407;SDS011;6268;48.188;17.134;2022-08-03T09:15:20;3.47;;;2.28;;
12407;SDS011;6268;48.188;17.134;2022-08-03T09:17:52;3.85;;;2.30;;
12407;SDS011;6268;48.188;17.134;2022-08-03T09:20:23;2.63;;;2.53;;
12407;SDS011;6268;48.188;17.134;2022-08-03T09:22:55;2.47;;;2.38;;
12407;SDS011;6268;48.188;17.134;2022-08-03T09:25:26;2.30;;;2.13;;
12407;SDS011;6268;48.188;17.134;2022-08-03T09:28:07;2.22;;;2.13;;
12407;SDS011;6268;48.188;17.134;2022-08-03T09:30:59;2.55;;;2.42;;
12407;SDS011;6268;48.188;17.134;2022-08-03T09:33:28;2.30;;;2.17;;
12407;SDS011;6268;48.188;17.134;2022-08-03T09:36:01;2.40;;;2.30;;
12407;SDS011;6268;48.188;17.134;2022-08-03T09:38:30;2.92;;;2.50;;
12407;SDS011;6268;48.188;17.134;2022-08-03T09:40:59;2.75;;;2.65;;
12407;SDS011;6268;48.188;17.134;2022-08-03T09:43:28;2.95;;;2.75;;
12407;SDS011;6268;48.188;17.134;2022-08-03T09:46:15;2.55;;;2.35;;
12407;SDS011;6268;48.188;17.134;2022-08-03T09:48:45;2.20;;;2.10;;
12407;SDS011;6268;48.188;17.134;2022-08-03T09:51:13;2.45;;;2.30;;
12407;SDS011;6268;48.188;17.134;2022-08-03T09:54:04;3.53;;;2.17;;
12407;SDS011;6268;48.188;17.134;2022-08-03T09:56:45;2.40;;;2.30;;
12407;SDS011;6268;48.188;17.134;2022-08-03T09:59:21;2.60;;;2.40;;
12407;SDS011;6268;48.188;17.134;2022-08-03T10:01:54;2.28;;;1.95;;
12407;SDS011;6268;48.188;17.134;2022-08-03T10:04:25;2.40;;;2.30;;
12407;SDS011;6268;48.188;17.134;2022-08-03T10:07:01;2.38;;;2.28;;
12407;SDS011;6268;48.188;17.134;2022-08-03T10:09:34;2.85;;;2.60;;
12407;SDS011;6268;48.188;17.134;2022-08-03T10:12:08;3.28;;;2.97;;
12407;SDS011;6268;48.188;17.134;2022-08-03T10:14:40;2.78;;;2.58;;
12407;SDS011;6268;48.188;17.134;2022-08-03T10:17:12;3.78;;;2.10;;
12407;SDS011;6268;48.188;17.134;2022-08-03T10:19:41;2.28;;;2.17;;
12407;SDS011;6268;48.188;17.134;2022-08-03T10:22:11;3.35;;;2.10;;
12407;SDS011;6268;48.188;17.134;2022-08-03T10:24:45;2.17;;;2.08;;
12407;SDS011;6268;48.188;17.134;2022-08-03T10:27:22;2.50;;;2.30;;
12407;SDS011;6268;48.188;17.134;2022-08-03T10:29:55;4.30;;;2.30;;
12407;SDS011;6268;48.188;17.134;2022-08-03T10:32:33;2.25;;;2.05;;
12407;SDS011;6268;48.188;17.134;2022-08-03T10:35:09;4.78;;;2.63;;
12407;SDS011;6268;48.188;17.134;2022-08-03T10:37:49;3.67;;;2.70;;
12407;SDS011;6268;48.188;17.134;2022-08-03T10:40:25;2.53;;;2.33;;
12407;SDS011;6268;48.188;17.134;2022-08-03T10:43:17;4.10;;;3.58;;
12407;SDS011;6268;48.188;17.134;2022-08-03T10:45:48;2.47;;;2.28;;
12407;SDS011;6268;48.188;17.134;2022-08-03T10:48:20;2.15;;;2.05;;
12407;SDS011;6268;48.188;17.134;2022-08-03T10:50:49;2.10;;;2.00;;
12407;SDS011;6268;48.188;17.134;2022-08-03T10:53:32;3.35;;;3.10;;
12407;SDS011;6268;48.188;17.134;2022-08-03T10:56:03;2.50;;;2.40;;
12407;SDS011;6268;48.188;17.134;2022-08-03T10:59:15;2.35;;;2.00;;
12407;SDS011;6268;48.188;17.134;2022-08-03T11:01:54;2.30;;;2.20;;
12407;SDS011;6268;48.188;17.134;2022-08-03T11:04:27;3.17;;;1.83;;
12407;SDS011;6268;48.188;17.134;2022-08-03T11:09:49;2.30;;;2.10;;
12407;SDS011;6268;48.188;17.134;2022-08-03T11:12:21;2.03;;;1.90;;
12407;SDS011;6268;48.188;17.134;2022-08-03T11:14:57;1.90;;;1.80;;
12407;SDS011;6268;48.188;17.134;2022-08-03T11:17:29;3.28;;;2.58;;
12407;SDS011;6268;48.188;17.134;2022-08-03T11:20:28;2.35;;;2.25;;
12407;SDS011;6268;48.188;17.134;2022-08-03T11:23:15;2.15;;;2.03;;
12407;SDS011;6268;48.188;17.134;2022-08-03T11:26:16;3.72;;;2.10;;
12407;SDS011;6268;48.188;17.134;2022-08-03T11:28:48;2.33;;;2.13;;
12407;SDS011;6268;48.188;17.134;2022-08-03T11:34:18;2.70;;;2.60;;
12407;SDS011;6268;48.188;17.134;2022-08-03T11:39:58;2.50;;;2.40;;
12407;SDS011;6268;48.188;17.134;2022-08-03T11:42:41;2.17;;;2.08;;
12407;SDS011;6268;48.188;17.134;2022-08-03T11:45:14;3.05;;;2.20;;
12407;SDS011;6268;48.188;17.134;2022-08-03T11:47:45;2.10;;;2.00;;
12407;SDS011;6268;48.188;17.134;2022-08-03T11:50:18;6.80;;;6.30;;
12407;SDS011;6268;48.188;17.134;2022-08-03T11:52:49;9.98;;;9.13;;
12407;SDS011;6268;48.188;17.134;2022-08-03T11:55:19;4.10;;;3.90;;
12407;SDS011;6268;48.188;17.134;2022-08-03T11:57:49;2.83;;;1.80;;
12407;SDS011;6268;48.188;17.134;2022-08-03T12:00:38;3.28;;;3.08;;
12407;SDS011;6268;48.188;17.134;2022-08-03T12:03:07;2.85;;;2.72;;
12407;SDS011;6268;48.188;17.134;2022-08-03T12:05:41;2.60;;;2.40;;
12407;SDS011;6268;48.188;17.134;2022-08-03T12:08:30;2.47;;;2.38;;
12407;SDS011;6268;48.188;17.134;2022-08-03T12:11:00;2.60;;;2.40;;
12407;SDS011;6268;48.188;17.134;2022-08-03T12:13:36;2.20;;;2.10;;
12407;SDS011;6268;48.188;17.134;2022-08-03T12:16:27;2.67;;;2.58;;
12407;SDS011;6268;48.188;17.134;2022-08-03T12:18:57;2.70;;;2.50;;
12407;SDS011;6268;48.188;17.134;2022-08-03T12:21:27;2.80;;;2.50;;
12407;SDS011;6268;48.188;17.134;2022-08-03T12:23:59;3.50;;;3.20;;
12407;SDS011;6268;48.188;17.134;2022-08-03T12:26:41;2.88;;;2.30;;
12407;SDS011;6268;48.188;17.134;2022-08-03T12:29:25;2.65;;;2.28;;
12407;SDS011;6268;48.188;17.134;2022-08-03T12:31:54;3.20;;;2.40;;
12407;SDS011;6268;48.188;17.134;2022-08-03T12:34:23;2.20;;;2.10;;
12407;SDS011;6268;48.188;17.134;2022-08-03T12:37:13;3.08;;;2.30;;
12407;SDS011;6268;48.188;17.134;2022-08-03T12:39:50;2.92;;;2.38;;
12407;SDS011;6268;48.188;17.134;2022-08-03T12:42:31;5.28;;;2.90;;
12407;SDS011;6268;48.188;17.134;2022-08-03T12:47:50;2.58;;;2.45;;
12407;SDS011;6268;48.188;17.134;2022-08-03T12:50:24;2.55;;;2.45;;
12407;SDS011;6268;48.188;17.134;2022-08-03T12:52:57;3.33;;;3.13;;
12407;SDS011;6268;48.188;17.134;2022-08-03T12:55:30;3.47;;;3.25;;
12407;SDS011;6268;48.188;17.134;2022-08-03T12:58:29;3.28;;;2.38;;
12407;SDS011;6268;48.188;17.134;2022-08-03T13:01:01;2.78;;;2.42;;
12407;SDS011;6268;48.188;17.134;2022-08-03T13:03:39;2.45;;;2.30;;
12407;SDS011;6268;48.188;17.134;2022-08-03T13:06:18;2.95;;;2.72;;
12407;SDS011;6268;48.188;17.134;2022-08-03T13:09:00;2.90;;;2.80;;
12407;SDS011;6268;48.188;17.134;2022-08-03T13:11:33;2.78;;;2.67;;
12407;SDS011;6268;48.188;17.134;2022-08-03T13:14:22;2.67;;;2.58;;
12407;SDS011;6268;48.188;17.134;2022-08-03T13:16:50;3.28;;;3.08;;
12407;SDS011;6268;48.188;17.134;2022-08-03T13:19:19;3.67;;;3.47;;
12407;SDS011;6268;48.188;17.134;2022-08-03T13:21:48;3.10;;;2.97;;
12407;SDS011;6268;48.188;17.134;2022-08-03T13:24:30;2.72;;;2.53;;
12407;SDS011;6268;48.188;17.134;2022-08-03T13:27:01;2.50;;;2.40;;
12407;SDS011;6268;48.188;17.134;2022-08-03T13:29:52;4.28;;;3.20;;
12407;SDS011;6268;48.188;17.134;2022-08-03T13:32:22;3.35;;;3.13;;
12407;SDS011;6268;48.188;17.134;2022-08-03T13:34:51;3.08;;;2.80;;
12407;SDS011;6268;48.188;17.134;2022-08-03T13:37:19;3.63;;;3.40;;
12407;SDS011;6268;48.188;17.134;2022-08-03T13:39:49;4.75;;;3.13;;
12407;SDS011;6268;48.188;17.134;2022-08-03T13:42:26;3.60;;;3.30;;
12407;SDS011;6268;48.188;17.134;2022-08-03T13:44:56;6.07;;;3.72;;
12407;SDS011;6268;48.188;17.134;2022-08-03T13:47:25;3.83;;;3.47;;
12407;SDS011;6268;48.188;17.134;2022-08-03T13:49:54;3.13;;;2.78;;
12407;SDS011;6268;48.188;17.134;2022-08-03T13:52:26;4.40;;;4.15;;
12407;SDS011;6268;48.188;17.134;2022-08-03T13:54:54;5.35;;;4.70;;
12407;SDS011;6268;48.188;17.134;2022-08-03T13:57:24;4.57;;;4.20;;
12407;SDS011;6268;48.188;17.134;2022-08-03T14:00:15;4.03;;;3.83;;
12407;SDS011;6268;48.188;17.134;2022-08-03T14:02:53;3.30;;;3.15;;
12407;SDS011;6268;48.188;17.134;2022-08-03T14:05:32;4.03;;;3.63;;
12407;SDS011;6268;48.188;17.134;2022-08-03T14:08:02;3.35;;;2.50;;
12407;SDS011;6268;48.188;17.134;2022-08-03T14:10:33;2.47;;;2.28;;
12407;SDS011;6268;48.188;17.134;2022-08-03T14:13:03;2.72;;;2.53;;
12407;SDS011;6268;48.188;17.134;2022-08-03T14:15:33;3.20;;;2.30;;
12407;SDS011;6268;48.188;17.134;2022-08-03T14:18:04;2.50;;;2.30;;
12407;SDS011;6268;48.188;17.134;2022-08-03T14:20:41;2.33;;;2.22;;
12407;SDS011;6268;48.188;17.134;2022-08-03T14:23:19;2.00;;;1.90;;
12407;SDS011;6268;48.188;17.134;2022-08-03T14:25:49;2.63;;;2.42;;
12407;SDS011;6268;48.188;17.134;2022-08-03T14:28:19;2.20;;;2.10;;
12407;SDS011;6268;48.188;17.134;2022-08-03T14:30:51;3.35;;;2.42;;
12407;SDS011;6268;48.188;17.134;2022-08-03T14:33:22;2.70;;;2.50;;
12407;SDS011;6268;48.188;17.134;2022-08-03T14:35:54;2.50;;;2.30;;
12407;SDS011;6268;48.188;17.134;2022-08-03T14:38:23;2.30;;;2.20;;
12407;SDS011;6268;48.188;17.134;2022-08-03T14:40:52;2.40;;;2.20;;
12407;SDS011;6268;48.188;17.134;2022-08-03T14:43:21;2.53;;;2.22;;
12407;SDS011;6268;48.188;17.134;2022-08-03T14:45:52;2.33;;;2.22;;
12407;SDS011;6268;48.188;17.134;2022-08-03T14:48:21;2.47;;;2.28;;
12407;SDS011;6268;48.188;17.134;2022-08-03T14:51:12;2.38;;;2.28;;
12407;SDS011;6268;48.188;17.134;2022-08-03T14:53:41;3.08;;;2.90;;
12407;SDS011;6268;48.188;17.134;2022-08-03T14:56:10;4.57;;;4.22;;
12407;SDS011;6268;48.188;17.134;2022-08-03T14:58:39;5.32;;;5.03;;
12407;SDS011;6268;48.188;17.134;2022-08-03T15:01:09;2.95;;;2.85;;
12407;SDS011;6268;48.188;17.134;2022-08-03T15:03:57;4.20;;;3.80;;
12407;SDS011;6268;48.188;17.134;2022-08-03T15:06:26;2.25;;;2.15;;
12407;SDS011;6268;48.188;17.134;2022-08-03T15:08:55;2.53;;;2.33;;
12407;SDS011;6268;48.188;17.134;2022-08-03T15:11:44;2.97;;;2.60;;
12407;SDS011;6268;48.188;17.134;2022-08-03T15:14:13;2.15;;;2.05;;
12407;SDS011;6268;48.188;17.134;2022-08-03T15:16:49;2.30;;;2.20;;
12407;SDS011;6268;48.188;17.134;2022-08-03T15:19:17;2.30;;;2.20;;
12407;SDS011;6268;48.188;17.134;2022-08-03T15:22:06;2.40;;;2.30;;
12407;SDS011;6268;48.188;17.134;2022-08-03T15:24:35;2.47;;;2.28;;
12407;SDS011;6268;48.188;17.134;2022-08-03T15:27:04;2.30;;;2.20;;
12407;SDS011;6268;48.188;17.134;2022-08-03T15:29:33;2.85;;;2.53;;
12407;SDS011;6268;48.188;17.134;2022-08-03T15:32:23;2.22;;;2.13;;
12407;SDS011;6268;48.188;17.134;2022-08-03T15:34:52;2.70;;;2.50;;
12407;SDS011;6268;48.188;17.134;2022-08-03T15:37:20;3.72;;;2.10;;
12407;SDS011;6268;48.188;17.134;2022-08-03T15:39:51;2.55;;;2.45;;
12407;SDS011;6268;48.188;17.134;2022-08-03T15:42:26;2.67;;;2.15;;